Time;durP1;ratioP1;P1;durP2;ratioP2;P2;SDS_P1;SDS_P2;PMS_P1;PMS_P2;Temp;Humidity;BMP_temperature;BMP_pressure;BME280_temperature;BME280_humidity;BME280_pressure;Samples;Min_cycle;Max_cycle;Signal;HPM_P1;HPM_P2
2023/02/06 00:03:27;;;;;;;;;;;17.50;50.60;;;;;;10204580;28;905;-74
2023/02/06 00:08:23;;;;;;;;;;;17.50;50.50;;;;;;10205274;28;867;-75
2023/02/06 00:13:18;;;;;;;;;;;17.50;50.40;;;;;;10205271;28;1891;-75
2023/02/06 00:18:13;;;;;;;;;;;17.50;50.50;;;;;;10204454;28;876;-75
2023/02/06 00:23:09;;;;;;;;;;;17.50;50.50;;;;;;10204295;28;959;-76
2023/02/06 00:28:04;;;;;;;;;;;17.50;51.00;;;;;;10204765;28;865;-75
2023/02/06 00:32:59;;;;;;;;;;;17.50;50.40;;;;;;10204929;28;1899;-75
2023/02/06 00:37:55;;;;;;;;;;;17.50;50.40;;;;;;10203749;28;1375;-75
2023/02/06 00:42:50;;;;;;;;;;;17.50;50.40;;;;;;10203861;28;799;-75
2023/02/06 00:47:45;;;;;;;;;;;17.40;50.30;;;;;;10205000;28;861;-75
2023/02/06 00:52:41;;;;;;;;;;;17.50;50.40;;;;;;10204352;28;2029;-75
2023/02/06 00:57:36;;;;;;;;;;;17.50;50.40;;;;;;10203622;28;779;-75
2023/02/06 01:02:32;;;;;;;;;;;17.50;50.40;;;;;;10204085;28;818;-75
2023/02/06 01:07:27;;;;;;;;;;;17.50;50.30;;;;;;10204061;28;778;-75
2023/02/06 01:12:22;;;;;;;;;;;17.50;50.30;;;;;;10206078;28;1898;-75
2023/02/06 01:17:18;;;;;;;;;;;17.50;50.30;;;;;;10211126;28;961;-75
2023/02/06 01:22:13;;;;;;;;;;;17.50;50.30;;;;;;10210885;28;977;-75
2023/02/06 01:27:08;;;;;;;;;;;17.50;50.20;;;;;;10210753;28;913;-75
2023/02/06 01:32:04;;;;;;;;;;;17.50;50.20;;;;;;10210492;28;1898;-75
2023/02/06 01:36:59;;;;;;;;;;;17.50;50.20;;;;;;10210803;28;1312;-75
2023/02/06 01:41:54;;;;;;;;;;;17.50;50.20;;;;;;10210270;28;968;-75
2023/02/06 01:46:53;;;;;;;;;;;17.40;50.10;;;;;;10209975;28;957;-75
2023/02/06 01:51:48;;;;;;;;;;;17.50;50.10;;;;;;10209655;28;1902;-75
2023/02/06 01:56:44;;;;;;;;;;;17.50;50.10;;;;;;10210226;28;771;-75
2023/02/06 02:01:39;;;;;;;;;;;17.50;50.20;;;;;;10208805;28;1374;-75
2023/02/06 02:06:35;;;;;;;;;;;17.50;50.10;;;;;;10209242;28;891;-75
2023/02/06 02:11:30;;;;;;;;;;;17.50;50.00;;;;;;10209103;28;1890;-75
2023/02/06 02:16:25;;;;;;;;;;;17.50;50.10;;;;;;10209518;28;824;-75
2023/02/06 02:21:21;;;;;;;;;;;17.40;50.70;;;;;;10209202;28;1031;-75
2023/02/06 02:26:17;;;;;;;;;;;17.40;50.10;;;;;;10208835;28;928;-75
2023/02/06 02:31:12;;;;;;;;;;;17.50;50.10;;;;;;10208199;28;1953;-75
2023/02/06 02:36:07;;;;;;;;;;;17.40;50.00;;;;;;10207935;28;1590;-75
2023/02/06 02:41:03;;;;;;;;;;;17.40;50.10;;;;;;10208562;28;949;-74
2023/02/06 02:45:58;;;;;;;;;;;17.40;50.10;;;;;;10207730;28;872;-75
2023/02/06 02:50:53;;;;;;;;;;;17.40;50.10;;;;;;10207531;28;1972;-75
2023/02/06 02:55:49;;;;;;;;;;;17.40;50.00;;;;;;10207976;28;889;-75
2023/02/06 03:00:44;;;;;;;;;;;17.40;50.10;;;;;;10207199;28;862;-75
2023/02/06 03:05:39;;;;;;;;;;;17.40;50.10;;;;;;10207028;28;967;-75
2023/02/06 03:10:35;;;;;;;;;;;17.40;50.00;;;;;;10206757;28;1900;-75
2023/02/06 03:15:30;;;;;;;;;;;17.40;50.00;;;;;;10206582;28;845;-75
2023/02/06 03:20:26;;;;;;;;;;;17.40;50.00;;;;;;10207048;28;866;-75
2023/02/06 03:25:21;;;;;;;;;;;17.40;50.00;;;;;;10205712;28;826;-75
2023/02/06 03:30:18;;;;;;;;;;;17.40;49.90;;;;;;10206788;28;1894;-75
2023/02/06 03:35:13;;;;;;;;;;;17.40;49.90;;;;;;10206597;28;1451;-75
2023/02/06 03:40:08;;;;;;;;;;;17.40;49.90;;;;;;10205725;28;782;-75
2023/02/06 03:45:04;;;;;;;;;;;17.40;49.80;;;;;;10206149;28;814;-75
2023/02/06 03:49:59;;;;;;;;;;;17.40;49.80;;;;;;10205919;28;1946;-75
2023/02/06 03:54:54;;;;;;;;;;;17.40;49.90;;;;;;10205800;28;783;-75
2023/02/06 03:59:50;;;;;;;;;;;17.40;49.80;;;;;;10205655;28;977;-75
2023/02/06 04:04:46;;;;;;;;;;;17.40;49.80;;;;;;10204814;28;868;-75
2023/02/06 04:09:41;;;;;;;;;;;17.40;49.90;;;;;;10205335;28;1894;-75
2023/02/06 04:14:37;;;;;;;;;;;17.40;49.80;;;;;;10205276;28;835;-75
2023/02/06 04:19:32;;;;;;;;;;;17.40;49.90;;;;;;10204444;28;933;-75
2023/02/06 04:24:27;;;;;;;;;;;17.40;49.90;;;;;;10204307;28;897;-75
2023/02/06 04:29:23;;;;;;;;;;;17.40;49.90;;;;;;10203605;28;741;-75
2023/02/06 04:34:18;;;;;;;;;;;17.30;49.90;;;;;;10203975;28;1910;-75
2023/02/06 04:39:13;;;;;;;;;;;17.40;49.90;;;;;;10204218;28;1269;-75
2023/02/06 04:44:09;;;;;;;;;;;17.40;49.80;;;;;;10204551;28;860;-75
2023/02/06 04:49:04;;;;;;;;;;;17.30;49.80;;;;;;10211955;28;830;-75
2023/02/06 04:54:00;;;;;;;;;;;17.30;49.90;;;;;;10211953;28;1977;-76
2023/02/06 04:58:55;;;;;;;;;;;17.30;49.70;;;;;;10212402;28;873;-75
2023/02/06 05:03:51;;;;;;;;;;;17.40;49.80;;;;;;10212867;28;934;-75
2023/02/06 05:08:46;;;;;;;;;;;17.40;50.30;;;;;;10212105;28;810;-75
2023/02/06 05:13:41;;;;;;;;;;;17.40;49.80;;;;;;10211346;28;1968;-75
2023/02/06 05:18:37;;;;;;;;;;;17.40;49.80;;;;;;10211122;28;863;-76
2023/02/06 05:23:32;;;;;;;;;;;17.40;49.70;;;;;;10212037;28;787;-75
2023/02/06 05:28:34;;;;;;;;;;;17.40;49.70;;;;;;10210773;28;843;-75
2023/02/06 05:33:29;;;;;;;;;;;17.40;49.60;;;;;;10210593;28;1965;-75
2023/02/06 05:38:24;;;;;;;;;;;17.40;49.60;;;;;;10210229;28;1442;-75
2023/02/06 05:43:20;;;;;;;;;;;17.40;49.60;;;;;;10210178;28;878;-75
2023/02/06 05:48:15;;;;;;;;;;;17.40;49.50;;;;;;10209998;28;938;-75
2023/02/06 05:53:11;;;;;;;;;;;17.40;49.60;;;;;;10209792;28;1971;-75
2023/02/06 05:58:06;;;;;;;;;;;17.40;49.50;;;;;;10208778;28;755;-75
2023/02/06 06:03:01;;;;;;;;;;;17.40;49.60;;;;;;10210033;28;806;-81
2023/02/06 06:07:57;;;;;;;;;;;17.40;49.60;;;;;;10209542;28;1008;-81
2023/02/06 06:12:52;;;;;;;;;;;17.40;49.50;;;;;;10208992;28;1902;-85
2023/02/06 06:17:47;;;;;;;;;;;17.40;49.60;;;;;;10208310;28;913;-79
2023/02/06 06:22:43;;;;;;;;;;;17.40;49.60;;;;;;10208153;28;888;-79
2023/02/06 06:27:38;;;;;;;;;;;17.40;49.50;;;;;;10208542;28;807;-77
2023/02/06 06:32:33;;;;;;;;;;;17.40;49.60;;;;;;10208869;28;1914;-78
2023/02/06 06:37:29;;;;;;;;;;;17.40;49.50;;;;;;10208270;28;1361;-78
2023/02/06 06:42:24;;;;;;;;;;;17.40;49.50;;;;;;10208644;28;850;-79
2023/02/06 06:47:20;;;;;;;;;;;17.40;49.60;;;;;;10208346;28;821;-82
2023/02/06 06:52:15;;;;;;;;;;;17.40;49.50;;;;;;10207997;28;1906;-76
2023/02/06 06:57:12;;;;;;;;;;;17.40;49.50;;;;;;10206786;28;1167;-76
2023/02/06 07:02:07;;;;;;;;;;;17.40;49.60;;;;;;10207231;28;872;-76
2023/02/06 07:07:02;;;;;;;;;;;17.40;49.50;;;;;;10207628;28;846;-77
2023/02/06 07:11:58;;;;;;;;;;;17.40;49.50;;;;;;10206743;28;1902;-76
2023/02/06 07:16:55;;;;;;;;;;;17.30;49.40;;;;;;10206073;28;870;-74
2023/02/06 07:21:50;;;;;;;;;;;17.30;49.50;;;;;;10205023;28;993;-79
2023/02/06 07:26:45;;;;;;;;;;;17.30;49.60;;;;;;10184904;28;914;-75
2023/02/06 07:31:41;;;;;;;;;;;17.30;49.70;;;;;;10165770;28;1965;-80
2023/02/06 07:36:36;;;;;;;;;;;17.30;49.70;;;;;;10165485;28;1075;-75
2023/02/06 07:41:32;;;;;;;;;;;17.30;49.50;;;;;;10187439;28;1100;-75
2023/02/06 07:46:27;;;;;;;;;;;17.30;49.50;;;;;;10206462;28;900;-75
2023/02/06 07:51:23;;;;;;;;;;;17.30;49.50;;;;;;10204233;28;1981;-76
2023/02/06 07:56:18;;;;;;;;;;;17.40;49.50;;;;;;10205567;28;873;-80
2023/02/06 08:01:13;;;;;;;;;;;17.30;49.60;;;;;;10204776;28;839;-85
2023/02/06 08:06:09;;;;;;;;;;;17.30;50.10;;;;;;10204091;28;838;-82
2023/02/06 08:11:04;;;;;;;;;;;17.30;49.50;;;;;;10204594;28;1915;-81
2023/02/06 08:16:00;;;;;;;;;;;17.30;49.50;;;;;;10204510;28;972;-78
2023/02/06 08:20:55;;;;;;;;;;;17.40;49.60;;;;;;10204029;28;829;-78
2023/02/06 08:25:50;;;;;;;;;;;17.40;49.40;;;;;;10205158;28;855;-79
2023/02/06 08:30:46;;;;;;;;;;;17.40;49.50;;;;;;10205360;28;1914;-79
2023/02/06 08:35:41;;;;;;;;;;;17.30;49.40;;;;;;10203733;28;1256;-78
2023/02/06 08:40:36;;;;;;;;;;;17.30;49.40;;;;;;10204040;28;950;-79
2023/02/06 08:45:32;;;;;;;;;;;17.40;49.40;;;;;;10205262;28;880;-79
2023/02/06 08:50:27;;;;;;;;;;;17.40;49.40;;;;;;10203774;28;1985;-79
2023/02/06 08:55:22;;;;;;;;;;;17.30;49.30;;;;;;10182612;28;992;-79
2023/02/06 09:00:18;;;;;;;;;;;17.40;49.40;;;;;;10123444;28;851;-78
2023/02/06 09:05:14;;;;;;;;;;;17.40;49.40;;;;;;10123612;28;872;-81
2023/02/06 09:10:09;;;;;;;;;;;17.40;49.40;;;;;;10133246;28;1911;-81
2023/02/06 09:15:05;;;;;;;;;;;17.40;49.20;;;;;;10163816;28;1000;-81
2023/02/06 09:20:00;;;;;;;;;;;17.30;48.60;;;;;;10163048;28;853;-80
2023/02/06 09:24:55;;;;;;;;;;;17.30;48.10;;;;;;10163983;28;862;-78
2023/02/06 09:29:51;;;;;;;;;;;16.10;43.30;;;;;;10162667;28;1965;-77
2023/02/06 09:34:46;;;;;;;;;;;14.70;42.90;;;;;;10168044;28;1037;-79
2023/02/06 09:39:42;;;;;;;;;;;14.10;44.30;;;;;;10170979;28;736;-78
2023/02/06 09:44:37;;;;;;;;;;;13.80;44.20;;;;;;10170884;28;830;-77
2023/02/06 09:49:32;;;;;;;;;;;13.50;44.10;;;;;;10170056;28;764;-77
2023/02/06 09:54:28;;;;;;;;;;;13.30;44.60;;;;;;10170294;28;1906;-76
2023/02/06 09:59:23;;;;;;;;;;;13.70;45.40;;;;;;10169676;28;797;-76
2023/02/06 10:04:18;;;;;;;;;;;15.20;44.40;;;;;;10169207;28;815;-76
2023/02/06 10:09:14;;;;;;;;;;;16.00;43.30;;;;;;10169832;28;866;-77
2023/02/06 10:14:09;;;;;;;;;;;16.20;43.00;;;;;;10169055;28;1898;-77
2023/02/06 10:19:05;;;;;;;;;;;16.40;43.20;;;;;;10168679;28;1224;-78
2023/02/06 10:24:01;;;;;;;;;;;16.50;43.40;;;;;;10168453;28;1516;-77
2023/02/06 10:28:57;;;;;;;;;;;16.50;43.60;;;;;;10168653;28;861;-77
2023/02/06 10:33:52;;;;;;;;;;;16.60;43.90;;;;;;10168264;28;1911;-77
2023/02/06 10:38:47;;;;;;;;;;;16.60;44.00;;;;;;10168286;28;1567;-77
2023/02/06 10:43:43;;;;;;;;;;;16.60;44.20;;;;;;10168175;28;872;-77
2023/02/06 10:48:38;;;;;;;;;;;16.70;44.40;;;;;;10167915;28;899;-78
2023/02/06 10:53:33;;;;;;;;;;;16.70;44.50;;;;;;10167650;28;1983;-78
2023/02/06 10:58:29;;;;;;;;;;;16.80;44.60;;;;;;10167522;28;786;-79
2023/02/06 11:03:24;;;;;;;;;;;16.80;44.70;;;;;;10167337;28;940;-78
2023/02/06 11:08:20;;;;;;;;;;;17.10;45.30;;;;;;10166897;28;871;-77
2023/02/06 11:13:15;;;;;;;;;;;17.10;45.80;;;;;;10167511;28;1972;-78
2023/02/06 11:18:11;;;;;;;;;;;17.00;45.80;;;;;;10166840;28;792;-79
2023/02/06 11:23:06;;;;;;;;;;;16.90;45.90;;;;;;10166460;28;1126;-77
2023/02/06 11:28:01;;;;;;;;;;;16.90;45.90;;;;;;10166350;28;812;-84
2023/02/06 11:32:57;;;;;;;;;;;17.00;45.90;;;;;;10166726;28;1906;-77
2023/02/06 11:37:53;;;;;;;;;;;16.90;46.00;;;;;;10166071;28;1100;-81
2023/02/06 11:42:48;;;;;;;;;;;16.90;46.00;;;;;;10165688;28;897;-79
2023/02/06 11:47:43;;;;;;;;;;;17.00;46.00;;;;;;10165588;28;919;-75
2023/02/06 11:52:39;;;;;;;;;;;17.10;46.80;;;;;;10165412;28;1923;-75
2023/02/06 11:57:34;;;;;;;;;;;16.90;46.90;;;;;;10165285;28;790;-75
2023/02/06 12:02:29;;;;;;;;;;;16.90;46.80;;;;;;10165677;28;919;-72
2023/02/06 12:07:26;;;;;;;;;;;16.90;46.80;;;;;;10164984;28;1027;-75
2023/02/06 12:12:21;;;;;;;;;;;16.90;46.90;;;;;;10164425;28;1910;-75
2023/02/06 12:17:17;;;;;;;;;;;16.90;46.90;;;;;;10164657;28;969;-75
2023/02/06 12:22:12;;;;;;;;;;;16.90;46.80;;;;;;10165171;28;889;-75
2023/02/06 12:27:08;;;;;;;;;;;16.90;46.80;;;;;;10164415;28;878;-76
2023/02/06 12:32:04;;;;;;;;;;;16.90;46.80;;;;;;10164821;28;1973;-75
2023/02/06 12:37:09;;;;;;;;;;;16.90;46.90;;;;;;10164371;28;1123;-75
2023/02/06 12:42:04;;;;;;;;;;;16.90;46.80;;;;;;10164147;28;861;-75
2023/02/06 12:47:00;;;;;;;;;;;16.90;46.90;;;;;;10164493;28;831;-76
2023/02/06 12:51:55;;;;;;;;;;;17.00;46.80;;;;;;10164442;28;1922;-76
2023/02/06 12:56:50;;;;;;;;;;;17.00;46.70;;;;;;10163746;28;786;-76
2023/02/06 13:01:46;;;;;;;;;;;17.00;46.80;;;;;;10163053;28;1237;-75
2023/02/06 13:06:41;;;;;;;;;;;17.00;46.80;;;;;;10165297;28;785;-77
2023/02/06 13:11:37;;;;;;;;;;;17.10;47.60;;;;;;10172067;28;2023;-72
2023/02/06 13:16:33;;;;;;;;;;;17.00;47.60;;;;;;10170903;28;1601;-72
2023/02/06 13:21:28;;;;;;;;;;;16.90;47.50;;;;;;10171173;28;913;-74
2023/02/06 13:26:24;;;;;;;;;;;16.90;47.50;;;;;;10171033;28;834;-79
2023/02/06 13:31:19;;;;;;;;;;;16.90;47.60;;;;;;10170799;28;1968;-77
2023/02/06 13:36:14;;;;;;;;;;;17.00;47.70;;;;;;10170472;28;1482;-79
2023/02/06 13:41:10;;;;;;;;;;;17.00;48.40;;;;;;10170733;28;928;-80
2023/02/06 13:46:05;;;;;;;;;;;17.00;47.80;;;;;;10171472;28;953;-79
2023/02/06 13:51:00;;;;;;;;;;;17.00;47.80;;;;;;10169495;28;1985;-79
2023/02/06 13:55:56;;;;;;;;;;;17.00;47.80;;;;;;10170106;28;858;-80
2023/02/06 14:00:51;;;;;;;;;;;17.00;47.80;;;;;;10168981;28;824;-80
2023/02/06 14:05:47;;;;;;;;;;;17.00;47.70;;;;;;10168968;28;767;-80
2023/02/06 14:10:42;;;;;;;;;;;17.00;47.70;;;;;;10162745;28;1902;-80
2023/02/06 14:15:37;;;;;;;;;;;17.00;47.80;;;;;;10167062;28;1061;-78
2023/02/06 14:20:33;;;;;;;;;;;17.00;47.70;;;;;;10167901;28;791;-77
2023/02/06 14:25:28;;;;;;;;;;;17.10;47.70;;;;;;10168027;28;1016;-78
2023/02/06 14:30:24;;;;;;;;;;;17.00;47.70;;;;;;10168684;28;1961;-78
2023/02/06 14:35:19;;;;;;;;;;;17.00;47.60;;;;;;10167565;28;1293;-79
2023/02/06 14:40:14;;;;;;;;;;;17.10;47.70;;;;;;10168274;28;800;-78
2023/02/06 14:45:10;;;;;;;;;;;17.10;47.70;;;;;;10167870;28;899;-74
2023/02/06 14:50:05;;;;;;;;;;;17.20;48.00;;;;;;10167929;28;1975;-74
2023/02/06 14:55:02;;;;;;;;;;;;;;;;;;10167396;28;810;-78
2023/02/06 14:59:58;;;;;;;;;;;;;;;;;;10168313;28;858;-78
2023/02/06 15:04:54;;;;;;;;;;;;;;;;;;10166757;28;909;-77
2023/02/06 15:09:50;;;;;;;;;;;;;;;;;;10167583;28;1961;-81
2023/02/06 15:14:46;;;;;;;;;;;;;;;;;;10167021;28;964;-82
2023/02/06 15:19:42;;;;;;;;;;;;;;;;;;10166007;28;770;-83
2023/02/06 15:24:37;;;;;;;;;;;;;;;;;;10165882;28;782;-81
2023/02/06 15:29:33;;;;;;;;;;;;;;;;;;10165627;28;942;-82
2023/02/06 15:34:29;;;;;;;;;;;;;;;;;;10166147;28;1945;-83
2023/02/06 15:39:25;;;;;;;;;;;;;;;;;;10166218;28;1379;-80
2023/02/06 15:44:21;;;;;;;;;;;;;;;;;;10164936;28;1029;-81
2023/02/06 15:49:17;;;;;;;;;;;;;;;;;;10165504;28;878;-79
2023/02/06 15:54:13;;;;;;;;;;;;;;;;;;10164875;28;1911;-79
2023/02/06 15:59:09;;;;;;;;;;;;;;;;;;10165063;28;917;-80
2023/02/06 16:04:05;;;;;;;;;;;;;;;;;;10165544;28;840;-74
2023/02/06 16:09:01;;;;;;;;;;;;;;;;;;10164822;28;875;-76
2023/02/06 16:13:57;;;;;;;;;;;;;;;;;;10164559;28;1946;-83
2023/02/06 16:18:53;;;;;;;;;;;;;;;;;;10164462;28;981;-78
2023/02/06 16:23:49;;;;;;;;;;;;;;;;;;10164336;28;765;-79
2023/02/06 16:28:45;;;;;;;;;;;;;;;;;;10163514;28;897;-78
2023/02/06 16:33:41;;;;;;;;;;;;;;;;;;10163456;28;1891;-79
2023/02/06 16:38:37;;;;;;;;;;;;;;;;;;10163578;28;1155;-76
2023/02/06 16:43:32;;;;;;;;;;;;;;;;;;10163139;28;964;-77
2023/02/06 16:48:28;;;;;;;;;;;;;;;;;;10163692;28;947;-77
2023/02/06 16:53:24;;;;;;;;;;;;;;;;;;10163955;28;1961;-78
2023/02/06 16:58:20;;;;;;;;;;;;;;;;;;10163459;28;938;-73
2023/02/06 17:03:16;;;;;;;;;;;;;;;;;;10163568;28;919;-75
2023/02/06 17:08:12;;;;;;;;;;;;;;;;;;10163068;28;759;-75
2023/02/06 17:13:08;;;;;;;;;;;;;;;;;;10163164;28;1941;-75
2023/02/06 17:18:04;;;;;;;;;;;;;;;;;;10162995;28;1348;-75
2023/02/06 17:23:00;;;;;;;;;;;;;;;;;;10163288;28;854;-75
2023/02/06 17:27:56;;;;;;;;;;;;;;;;;;10162231;28;1295;-75
2023/02/06 17:32:51;;;;;;;;;;;;;;;;;;10162993;28;1886;-75
2023/02/06 17:37:48;;;;;;;;;;;;;;;;;;10163630;28;1254;-75
2023/02/06 17:42:43;;;;;;;;;;;;;;;;;;10162948;28;983;-77
2023/02/06 17:47:39;;;;;;;;;;;;;;;;;;10156487;28;1002;-79
2023/02/06 17:52:35;;;;;;;;;;;;;;;;;;10162795;28;1910;-77
2023/02/06 17:57:31;;;;;;;;;;;;;;;;;;10169964;28;892;-77
2023/02/06 18:02:27;;;;;;;;;;;;;;;;;;10169726;28;935;-79
2023/02/06 18:07:23;;;;;;;;;;;;;;;;;;10169059;28;1216;-77
2023/02/06 18:12:19;;;;;;;;;;;;;;;;;;10169380;28;1879;-76
2023/02/06 18:17:15;;;;;;;;;;;;;;;;;;10168916;28;904;-76
2023/02/06 18:22:11;;;;;;;;;;;;;;;;;;10169041;28;826;-84
2023/02/06 18:27:07;;;;;;;;;;;;;;;;;;10169472;28;895;-85
2023/02/06 18:32:03;;;;;;;;;;;;;;;;;;10168401;28;1887;-84
2023/02/06 18:36:59;;;;;;;;;;;;;;;;;;10168304;28;1303;-84
2023/02/06 18:47:09;;;;;;;;;;;;;;;;;;10167769;28;601;-84
2023/02/06 18:52:05;;;;;;;;;;;;;;;;;;10167945;28;1915;-84
2023/02/06 18:57:01;;;;;;;;;;;;;;;;;;10167488;28;803;-84
2023/02/06 19:01:57;;;;;;;;;;;;;;;;;;10167485;28;949;-84
2023/02/06 19:06:52;;;;;;;;;;;;;;;;;;10167757;28;934;-76
2023/02/06 19:11:48;;;;;;;;;;;;;;;;;;10166477;28;1966;-76
2023/02/06 19:16:46;;;;;;;;;;;;;;;;;;10166417;28;905;-76
2023/02/06 19:21:42;;;;;;;;;;;;;;;;;;10167140;28;875;-76
2023/02/06 19:26:38;;;;;;;;;;;;;;;;;;10166599;28;863;-76
2023/02/06 19:31:37;;;;;;;;;;;;;;;;;;10166455;28;1949;-76
2023/02/06 19:36:33;;;;;;;;;;;;;;;;;;10165414;28;1234;-75
2023/02/06 19:41:29;;;;;;;;;;;;;;;;;;10166609;28;796;-76
2023/02/06 19:46:25;;;;;;;;;;;;;;;;;;10165316;28;933;-75
2023/02/06 19:51:21;;;;;;;;;;;;;;;;;;10165379;28;1906;-75
2023/02/06 19:56:17;;;;;;;;;;;;;;;;;;10165684;28;822;-78
2023/02/06 20:01:13;;;;;;;;;;;;;;;;;;10164757;28;1047;-84
2023/02/06 20:06:09;;;;;;;;;;;;;;;;;;10165762;28;814;-78
2023/02/06 20:11:05;;;;;;;;;;;;;;;;;;10165448;28;1941;-73
2023/02/06 20:16:05;;;;;;;;;;;;;;;;;;10164887;28;830;-73
2023/02/06 20:21:01;;;;;;;;;;;;;;;;;;10164519;28;869;-73
2023/02/06 20:25:59;;;;;;;;;;;;;;;;;;10164431;28;995;-73
2023/02/06 20:30:55;;;;;;;;;;;;;;;;;;10164931;28;1948;-73
2023/02/06 20:35:51;;;;;;;;;;;;;;;;;;10163998;28;1139;-73
2023/02/06 20:40:46;;;;;;;;;;;;;;;;;;10163610;28;1387;-73
2023/02/06 20:45:42;;;;;;;;;;;;;;;;;;10164113;28;897;-73
2023/02/06 20:50:38;;;;;;;;;;;;;;;;;;10163324;28;1906;-74
2023/02/06 20:55:34;;;;;;;;;;;;;;;;;;10163696;28;878;-74
2023/02/06 21:00:30;;;;;;;;;;;;;;;;;;10164228;28;953;-74
2023/02/06 21:05:26;;;;;;;;;;;;;;;;;;10164244;28;991;-74
2023/02/06 21:10:22;;;;;;;;;;;;;;;;;;10163836;28;1879;-72
2023/02/06 21:15:18;;;;;;;;;;;;;;;;;;10163497;28;962;-72
2023/02/06 21:20:13;;;;;;;;;;;;;;;;;;10163511;28;953;-72
2023/02/06 21:25:09;;;;;;;;;;;;;;;;;;10163775;28;846;-72
2023/02/06 21:30:05;;;;;;;;;;;;;;;;;;10168731;28;1887;-72
2023/02/06 21:35:01;;;;;;;;;;;;;;;;;;10170603;28;1333;-72
2023/02/06 21:39:57;;;;;;;;;;;;;;;;;;10171345;28;834;-72
2023/02/06 21:44:53;;;;;;;;;;;;;;;;;;10171137;28;802;-72
2023/02/06 21:49:49;;;;;;;;;;;;;;;;;;10170341;28;813;-72
2023/02/06 21:54:45;;;;;;;;;;;;;;;;;;10170081;28;1906;-72
2023/02/06 21:59:40;;;;;;;;;;;;;;;;;;10169945;28;905;-72
2023/02/06 22:04:36;;;;;;;;;;;;;;;;;;10169803;28;776;-72
2023/02/06 22:09:32;;;;;;;;;;;;;;;;;;10169547;28;876;-72
2023/02/06 22:14:28;;;;;;;;;;;;;;;;;;10169368;28;1895;-73
2023/02/06 22:19:24;;;;;;;;;;;;;;;;;;10169868;28;771;-72
2023/02/06 22:24:20;;;;;;;;;;;;;;;;;;10167476;28;1010;-72
2023/02/06 22:29:16;;;;;;;;;;;;;;;;;;10167746;28;845;-72
2023/02/06 22:34:12;;;;;;;;;;;;;;;;;;10168563;28;1890;-72
2023/02/06 22:45:01;;;;;;;;;;;;;;;;;;10124086;28;11689;-69
2023/02/06 22:49:57;;;;;;;;;;;;;;;;;;10112116;28;902;-70
2023/02/06 22:54:53;;;;;;;;;;;;;;;;;;10112789;28;884;-69
2023/02/06 22:59:49;;;;;;;;;;;;;;;;;;10112092;28;865;-69
2023/02/06 23:04:45;;;;;;;;;;;;;;;;;;10111947;28;1980;-68
2023/02/06 23:09:40;;;;;;;;;;;;;;;;;;10111530;28;845;-68
2023/02/06 23:14:36;;;;;;;;;;;;;;;;;;10111803;28;932;-73
2023/02/06 23:19:32;;;;;;;;;;;;;;;;;;10110562;28;857;-77
2023/02/06 23:24:28;;;;;;;;;;;19.50;45.30;;;;;;10134663;28;9921;-85
2023/02/06 23:29:23;;;;;;;;;;;19.30;45.40;;;;;;10110014;28;10158;-84
2023/02/06 23:34:18;;;;;;;;;;;17.80;47.60;;;;;;10118092;28;10142;-79
2023/02/06 23:39:14;;;;;;;;;;;17.40;48.50;;;;;;10110583;28;928;-80
2023/02/06 23:44:09;;;;;;;;;;;17.30;48.60;;;;;;10111179;28;1898;-79
2023/02/06 23:49:05;;;;;;;;;;;17.30;48.70;;;;;;10110935;28;990;-74
2023/02/06 23:54:00;;;;;;;;;;;17.20;48.70;;;;;;10097058;28;809;-77
2023/02/06 23:58:56;;;;;;;;;;;17.20;48.70;;;;;;10084339;28;790;-81
